createdAt,value
2018-03-03T00:00:08.838Z,-2.10
2018-03-03T00:02:37.007Z,-2.10
2018-03-03T00:05:05.280Z,-2.20
2018-03-03T00:07:33.603Z,-2.10
2018-03-03T00:10:01.880Z,-2.10
2018-03-03T00:12:30.176Z,-2.10
2018-03-03T00:14:58.455Z,-2.10
2018-03-03T00:17:26.844Z,-2.10
2018-03-03T00:19:55.179Z,-2.10
2018-03-03T00:25:17.715Z,-2.10
2018-03-03T00:27:46.154Z,-2.10
2018-03-03T00:30:14.645Z,-2.10
2018-03-03T00:32:42.931Z,-2.10
2018-03-03T00:35:11.298Z,-2.10
2018-03-03T00:37:39.533Z,-2.20
2018-03-03T00:40:08.654Z,-2.20
2018-03-03T00:42:37.036Z,-2.20
2018-03-03T00:45:06.127Z,-2.10
2018-03-03T00:47:34.412Z,-2.20
2018-03-03T00:50:02.762Z,-2.10
2018-03-03T00:52:31.266Z,-2.10
2018-03-03T00:54:59.653Z,-2.10
2018-03-03T00:57:28.853Z,-2.10
2018-03-03T00:59:57.151Z,-2.20
2018-03-03T01:02:25.437Z,-2.10
2018-03-03T01:04:53.711Z,-2.10
2018-03-03T01:07:21.974Z,-2.10
2018-03-03T01:09:50.267Z,-2.10
2018-03-03T01:12:18.520Z,-2.10
2018-03-03T01:14:47.632Z,-2.00
2018-03-03T01:17:15.906Z,-2.10
2018-03-03T01:19:44.210Z,-2.00
2018-03-03T01:22:12.525Z,-2.10
2018-03-03T01:24:40.870Z,-2.10
2018-03-03T01:27:09.168Z,-2.10
2018-03-03T01:29:37.516Z,-2.10
2018-03-03T01:32:05.815Z,-2.00
2018-03-03T01:34:34.203Z,-2.10
2018-03-03T01:37:03.315Z,-2.00
2018-03-03T01:39:31.633Z,-2.10
2018-03-03T01:42:00.039Z,-2.10
2018-03-03T01:44:28.304Z,-2.10
2018-03-03T01:46:56.687Z,-2.10
2018-03-03T01:49:24.960Z,-2.10
2018-03-03T01:51:53.308Z,-2.00
2018-03-03T01:54:21.568Z,-2.00
2018-03-03T01:56:49.846Z,-2.00
2018-03-03T01:59:18.207Z,-2.00
2018-03-03T02:01:46.508Z,-2.00
2018-03-03T02:04:14.776Z,-2.00
2018-03-03T02:06:43.076Z,-2.00
2018-03-03T02:09:11.367Z,-2.00
2018-03-03T02:11:39.660Z,-2.00
2018-03-03T02:14:07.951Z,-2.10
2018-03-03T02:16:36.267Z,-2.10
2018-03-03T02:19:04.551Z,-2.00
2018-03-03T02:21:32.815Z,-2.00
2018-03-03T02:24:01.101Z,-2.00
2018-03-03T02:26:29.492Z,-2.00
2018-03-03T02:28:57.769Z,-2.00
2018-03-03T02:31:26.148Z,-2.00
2018-03-03T02:33:54.546Z,-2.00
2018-03-03T02:36:22.856Z,-2.00
2018-03-03T02:38:51.247Z,-2.00
2018-03-03T02:41:19.499Z,-2.00
2018-03-03T02:43:47.799Z,-2.00
2018-03-03T02:46:16.076Z,-2.10
2018-03-03T02:48:45.249Z,-2.10
2018-03-03T02:51:13.517Z,-2.10
2018-03-03T02:53:41.955Z,-2.10
2018-03-03T02:56:10.204Z,-2.10
2018-03-03T02:58:38.604Z,-2.10
2018-03-03T03:01:06.988Z,-2.10
2018-03-03T03:03:36.168Z,-2.00
2018-03-03T03:06:04.537Z,-2.10
2018-03-03T03:08:32.783Z,-2.10
2018-03-03T03:11:01.080Z,-2.10
2018-03-03T03:13:30.900Z,-2.10
2018-03-03T03:15:59.168Z,-2.10
2018-03-03T03:18:27.569Z,-2.10
2018-03-03T03:20:55.835Z,-2.10
2018-03-03T03:23:24.222Z,-2.10
2018-03-03T03:25:52.475Z,-2.10
2018-03-03T03:28:21.516Z,-2.10
2018-03-03T03:30:49.863Z,-2.10
2018-03-03T03:33:18.174Z,-2.00
2018-03-03T03:35:46.493Z,-2.00
2018-03-03T03:38:16.327Z,-2.10
2018-03-03T03:40:44.582Z,-2.10
2018-03-03T03:43:12.855Z,-2.00
2018-03-03T03:45:41.142Z,-2.00
2018-03-03T03:48:09.419Z,-2.10
2018-03-03T03:50:38.008Z,-2.00
2018-03-03T03:53:06.264Z,-2.00
2018-03-03T03:55:34.762Z,-2.00
2018-03-03T03:58:03.048Z,-2.00
2018-03-03T04:00:32.178Z,-2.00
2018-03-03T04:03:00.462Z,-2.10
2018-03-03T04:05:28.987Z,-2.00
2018-03-03T04:07:58.084Z,-2.00
2018-03-03T04:10:26.339Z,-2.00
2018-03-03T04:12:54.635Z,-2.00
2018-03-03T04:15:23.004Z,-1.90
2018-03-03T04:17:52.151Z,-1.90
2018-03-03T04:20:20.459Z,-2.00
2018-03-03T04:22:48.755Z,-1.90
2018-03-03T04:25:17.812Z,-1.90
2018-03-03T04:27:46.081Z,-2.00
2018-03-03T04:30:14.344Z,-1.90
2018-03-03T04:32:42.674Z,-1.90
2018-03-03T04:35:10.935Z,-1.90
2018-03-03T04:37:39.243Z,-1.80
2018-03-03T04:40:07.490Z,-1.90
2018-03-03T04:42:35.774Z,-1.90
2018-03-03T04:45:05.566Z,-1.90
2018-03-03T04:47:33.858Z,-1.90
2018-03-03T04:50:03.006Z,-1.90
2018-03-03T04:52:31.308Z,-1.90
2018-03-03T04:55:00.609Z,-1.90
2018-03-03T04:57:29.484Z,-1.90
2018-03-03T04:59:57.779Z,-1.90
2018-03-03T05:02:26.068Z,-1.90
2018-03-03T05:04:54.443Z,-1.90
2018-03-03T05:07:22.684Z,-1.90
2018-03-03T05:09:51.015Z,-1.80
2018-03-03T05:12:19.374Z,-1.90
2018-03-03T05:14:47.655Z,-1.90
2018-03-03T05:17:16.689Z,-1.90
2018-03-03T05:19:45.017Z,-2.00
2018-03-03T05:22:13.267Z,-1.90
2018-03-03T05:24:41.671Z,-1.90
2018-03-03T05:27:10.772Z,-1.90
2018-03-03T05:29:39.023Z,-2.00
2018-03-03T05:32:07.314Z,-2.00
2018-03-03T05:34:36.493Z,-2.00
2018-03-03T05:37:04.780Z,-2.10
2018-03-03T05:39:33.036Z,-2.10
2018-03-03T05:42:01.314Z,-2.10
2018-03-03T05:44:29.603Z,-2.10
2018-03-03T05:46:57.907Z,-2.20
2018-03-03T05:49:26.182Z,-2.20
2018-03-03T05:51:54.467Z,-2.20
2018-03-03T05:54:22.720Z,-2.20
2018-03-03T05:56:51.093Z,-2.20
2018-03-03T05:59:19.367Z,-2.20
2018-03-03T06:01:48.452Z,-2.20
2018-03-03T06:04:17.521Z,-2.20
2018-03-03T06:06:45.824Z,-2.30
2018-03-03T06:09:14.096Z,-2.20
2018-03-03T06:11:42.475Z,-2.30
2018-03-03T06:14:10.749Z,-2.30
2018-03-03T06:16:39.018Z,-2.30
2018-03-03T06:19:07.291Z,-2.30
2018-03-03T06:21:35.570Z,-2.30
2018-03-03T06:24:04.719Z,-2.30
2018-03-03T06:26:32.994Z,-2.30
2018-03-03T06:29:01.310Z,-2.30
2018-03-03T06:31:29.782Z,-2.30
2018-03-03T06:33:58.896Z,-2.30
2018-03-03T06:36:27.126Z,-2.40
2018-03-03T06:38:55.549Z,-2.30
2018-03-03T06:41:23.784Z,-2.20
2018-03-03T06:43:52.080Z,-2.30
2018-03-03T06:46:20.380Z,-2.30
2018-03-03T06:48:49.462Z,-2.30
2018-03-03T06:51:18.518Z,-2.20
2018-03-03T06:53:46.840Z,-2.30
2018-03-03T06:56:15.127Z,-2.20
2018-03-03T06:58:44.292Z,-2.10
2018-03-03T07:01:12.677Z,-2.20
2018-03-03T07:03:40.940Z,-2.10
2018-03-03T07:06:09.216Z,-2.10
2018-03-03T07:08:37.583Z,-2.10
2018-03-03T07:11:06.101Z,-2.00
2018-03-03T07:13:35.144Z,-2.00
2018-03-03T07:16:03.466Z,-2.00
2018-03-03T07:18:31.733Z,-1.90
2018-03-03T07:21:00.008Z,-1.80
2018-03-03T07:23:29.055Z,-1.80
2018-03-03T07:25:57.344Z,-1.80
2018-03-03T07:28:25.673Z,-1.80
2018-03-03T07:30:54.779Z,-1.70
2018-03-03T07:33:23.080Z,-1.70
2018-03-03T07:35:51.354Z,-1.60
2018-03-03T07:38:19.667Z,-1.60
2018-03-03T07:40:47.934Z,-1.50
2018-03-03T07:43:16.240Z,-1.40
2018-03-03T07:45:45.295Z,-1.20
2018-03-03T07:48:14.403Z,-1.10
2018-03-03T07:50:42.966Z,-1.20
2018-03-03T07:53:11.254Z,-1.10
2018-03-03T07:55:40.496Z,-0.90
2018-03-03T07:58:09.886Z,-1.00
2018-03-03T08:00:38.134Z,-1.00
2018-03-03T08:03:06.432Z,-1.00
2018-03-03T08:05:35.632Z,-0.90
2018-03-03T08:08:03.933Z,-1.00
2018-03-03T08:10:32.314Z,-0.80
2018-03-03T08:13:00.681Z,-0.80
2018-03-03T08:15:29.002Z,-0.70
2018-03-03T08:17:57.296Z,-0.70
2018-03-03T08:20:25.573Z,-0.70
2018-03-03T08:22:53.852Z,-0.60
2018-03-03T08:25:22.166Z,-0.50
2018-03-03T08:27:50.526Z,-0.50
2018-03-03T08:30:19.649Z,-0.30
2018-03-03T08:32:47.929Z,-0.40
2018-03-03T08:35:16.206Z,-0.30
2018-03-03T08:37:44.540Z,-0.20
2018-03-03T08:40:12.830Z,-0.10
2018-03-03T08:42:41.169Z,-0.20
2018-03-03T08:45:09.455Z,-0.10
2018-03-03T08:47:37.706Z,0.00
2018-03-03T08:50:06.036Z,0.00
2018-03-03T08:52:34.340Z,0.10
2018-03-03T08:55:02.678Z,0.10
2018-03-03T08:57:30.943Z,0.10
2018-03-03T08:59:59.212Z,0.20
2018-03-03T09:02:28.244Z,0.20
2018-03-03T09:04:56.514Z,0.10
2018-03-03T09:07:24.843Z,0.20
2018-03-03T09:09:54.040Z,0.30
2018-03-03T09:12:23.112Z,0.20
2018-03-03T09:14:52.266Z,0.20
2018-03-03T09:17:20.616Z,0.20
2018-03-03T09:19:49.812Z,0.50
2018-03-03T09:22:18.122Z,0.50
2018-03-03T09:24:47.196Z,0.60
2018-03-03T09:27:15.461Z,0.60
2018-03-03T09:29:44.534Z,0.60
2018-03-03T09:32:12.879Z,0.50
2018-03-03T09:34:41.150Z,0.50
2018-03-03T09:37:09.441Z,0.70
2018-03-03T09:39:37.796Z,0.90
2018-03-03T09:42:06.053Z,1.00
2018-03-03T09:44:34.347Z,1.10
2018-03-03T09:47:02.618Z,1.30
2018-03-03T09:49:30.911Z,1.70
2018-03-03T09:51:59.522Z,1.90
2018-03-03T09:54:27.889Z,2.00
2018-03-03T09:56:56.142Z,2.20
2018-03-03T09:59:24.408Z,2.30
2018-03-03T10:02:05.924Z,2.40
2018-03-03T10:04:21.108Z,2.40
2018-03-03T10:06:49.388Z,2.50
2018-03-03T10:09:18.399Z,2.40
2018-03-03T10:11:46.703Z,2.40
2018-03-03T10:14:14.972Z,2.40
2018-03-03T10:16:43.383Z,2.30
2018-03-03T10:19:11.775Z,2.30
2018-03-03T10:21:40.022Z,2.10
2018-03-03T10:24:08.299Z,2.20
2018-03-03T10:26:36.607Z,2.10
2018-03-03T10:29:05.009Z,2.00
2018-03-03T10:31:34.059Z,1.80
2018-03-03T10:34:02.334Z,1.70
2018-03-03T10:36:30.611Z,1.90
2018-03-03T10:38:58.938Z,2.00
2018-03-03T10:41:27.244Z,2.10
2018-03-03T10:43:55.647Z,2.10
2018-03-03T10:46:24.665Z,2.40
2018-03-03T10:48:53.736Z,2.50
2018-03-03T10:51:21.970Z,2.40
2018-03-03T10:53:50.259Z,2.60
2018-03-03T10:56:18.543Z,2.50
2018-03-03T10:58:48.467Z,2.80
2018-03-03T11:01:16.739Z,2.80
2018-03-03T11:03:45.226Z,2.60
2018-03-03T11:06:13.474Z,2.70
2018-03-03T11:08:41.733Z,2.80
2018-03-03T11:11:10.053Z,2.60
2018-03-03T11:13:38.330Z,2.50
2018-03-03T11:16:06.651Z,2.60
2018-03-03T11:18:34.992Z,2.70
2018-03-03T11:21:03.296Z,2.90
2018-03-03T11:33:16.656Z,2.90
2018-03-03T11:35:44.932Z,2.80
2018-03-03T11:38:13.195Z,2.70
2018-03-03T11:40:41.464Z,2.70
2018-03-03T11:43:09.896Z,2.70
2018-03-03T11:45:38.288Z,2.80
2018-03-03T11:48:06.596Z,2.80
2018-03-03T11:50:34.878Z,2.70
2018-03-03T11:53:03.915Z,2.80
2018-03-03T11:55:32.212Z,2.70
2018-03-03T11:58:00.526Z,2.80
2018-03-03T12:00:28.871Z,2.70
2018-03-03T12:02:57.958Z,2.80
2018-03-03T12:05:26.232Z,2.70
2018-03-03T12:07:54.707Z,2.80
2018-03-03T12:10:22.998Z,3.00
2018-03-03T12:12:51.248Z,3.00
2018-03-03T12:15:19.692Z,3.10
2018-03-03T12:17:47.978Z,3.20
2018-03-03T12:20:16.196Z,3.10
2018-03-03T12:22:44.504Z,3.20
2018-03-03T12:25:13.563Z,3.50
2018-03-03T12:27:42.228Z,3.40
2018-03-03T12:30:10.528Z,3.50
2018-03-03T12:32:40.194Z,3.30
2018-03-03T12:35:08.567Z,3.20
2018-03-03T12:37:36.852Z,3.20
2018-03-03T12:40:05.321Z,3.20
2018-03-03T12:42:34.377Z,3.20
2018-03-03T12:45:02.656Z,3.10
2018-03-03T12:47:31.025Z,3.40
2018-03-03T12:49:59.263Z,3.40
2018-03-03T12:52:27.513Z,3.50
2018-03-03T12:54:55.843Z,3.60
2018-03-03T12:57:24.103Z,3.60
2018-03-03T12:59:52.420Z,3.60
2018-03-03T13:02:21.486Z,3.60
2018-03-03T13:04:49.881Z,3.50
2018-03-03T13:07:18.323Z,3.70
2018-03-03T13:09:46.571Z,3.60
2018-03-03T13:12:14.851Z,3.50
2018-03-03T13:14:43.131Z,3.50
2018-03-03T13:17:11.590Z,3.50
2018-03-03T13:19:39.999Z,3.60
2018-03-03T13:22:08.302Z,3.50
2018-03-03T13:24:36.586Z,3.40
2018-03-03T13:27:04.887Z,3.40
2018-03-03T13:29:33.220Z,3.40
2018-03-03T13:32:01.650Z,3.40
2018-03-03T13:34:29.912Z,3.20
2018-03-03T13:36:58.989Z,3.00
2018-03-03T13:39:27.235Z,3.00
2018-03-03T13:41:55.543Z,3.00
2018-03-03T13:44:24.576Z,3.00
2018-03-03T13:46:52.895Z,3.00
2018-03-03T13:49:21.238Z,2.90
2018-03-03T13:51:49.550Z,2.90
2018-03-03T13:54:17.832Z,2.90
2018-03-03T13:56:46.945Z,3.00
2018-03-03T13:59:16.004Z,3.00
2018-03-03T14:01:44.276Z,3.00
2018-03-03T14:04:12.740Z,3.10
2018-03-03T14:06:41.068Z,3.10
2018-03-03T14:09:09.532Z,3.20
2018-03-03T14:11:37.777Z,3.20
2018-03-03T14:14:06.236Z,3.20
2018-03-03T14:16:34.588Z,3.20
2018-03-03T14:19:02.862Z,3.20
2018-03-03T14:21:31.172Z,3.20
2018-03-03T14:23:59.491Z,3.20
2018-03-03T14:26:28.696Z,3.30
2018-03-03T14:28:56.998Z,3.30
2018-03-03T14:31:25.278Z,3.40
2018-03-03T14:33:53.539Z,3.40
2018-03-03T14:36:21.813Z,3.40
2018-03-03T14:38:50.963Z,3.40
2018-03-03T14:41:19.243Z,3.40
2018-03-03T14:43:47.538Z,3.40
2018-03-03T14:46:16.574Z,3.50
2018-03-03T14:48:44.871Z,3.50
2018-03-03T14:51:13.168Z,3.60
2018-03-03T14:53:42.384Z,3.70
2018-03-03T14:56:11.414Z,3.60
2018-03-03T14:58:39.742Z,3.60
2018-03-03T15:01:08.075Z,3.70
2018-03-03T15:03:36.370Z,3.60
2018-03-03T15:06:04.666Z,3.60
2018-03-03T15:08:32.963Z,3.50
2018-03-03T15:11:01.252Z,3.50
2018-03-03T15:13:29.655Z,3.50
2018-03-03T15:15:57.930Z,3.40
2018-03-03T15:18:26.191Z,3.40
2018-03-03T15:20:54.496Z,3.30
2018-03-03T15:23:22.732Z,3.20
2018-03-03T15:25:50.999Z,3.20
2018-03-03T15:28:20.115Z,3.00
2018-03-03T15:30:48.401Z,3.00
2018-03-03T15:33:16.701Z,3.00
2018-03-03T15:35:45.299Z,3.00
2018-03-03T15:38:13.664Z,3.00
2018-03-03T15:40:41.908Z,2.90
2018-03-03T15:43:10.206Z,2.90
2018-03-03T15:45:38.452Z,2.80
2018-03-03T15:48:06.717Z,2.70
2018-03-03T15:50:35.022Z,2.70
2018-03-03T15:53:03.251Z,2.60
2018-03-03T15:55:31.556Z,2.60
2018-03-03T15:57:59.823Z,2.60
2018-03-03T16:00:28.291Z,2.50
2018-03-03T16:02:56.563Z,2.50
2018-03-03T16:05:25.684Z,2.30
2018-03-03T16:07:55.259Z,2.30
2018-03-03T16:10:23.621Z,2.20
2018-03-03T16:12:52.750Z,2.20
2018-03-03T16:15:21.025Z,2.10
2018-03-03T16:17:49.287Z,2.10
2018-03-03T16:20:17.568Z,2.10
2018-03-03T16:22:45.884Z,2.10
2018-03-03T16:25:14.228Z,2.00
2018-03-03T16:27:42.499Z,2.00
2018-03-03T16:30:10.797Z,2.00
2018-03-03T16:32:39.064Z,1.90
2018-03-03T16:35:07.347Z,1.90
2018-03-03T16:37:35.636Z,1.90
2018-03-03T16:40:04.842Z,1.80
2018-03-03T16:42:33.108Z,1.80
2018-03-03T16:45:01.426Z,1.80
2018-03-03T16:47:29.790Z,1.70
2018-03-03T16:49:58.065Z,1.70
2018-03-03T16:52:27.216Z,1.70
2018-03-03T16:54:55.463Z,1.60
2018-03-03T16:57:23.739Z,1.60
2018-03-03T16:59:52.042Z,1.60
2018-03-03T17:02:20.331Z,1.50
2018-03-03T17:04:48.586Z,1.50
2018-03-03T17:07:16.847Z,1.40
2018-03-03T17:09:45.140Z,1.40
2018-03-03T17:12:13.423Z,1.30
2018-03-03T17:14:41.692Z,1.30
2018-03-03T17:17:10.148Z,1.20
2018-03-03T17:19:38.408Z,1.20
2018-03-03T17:22:06.679Z,1.10
2018-03-03T17:24:35.018Z,1.10
2018-03-03T17:27:03.291Z,1.00
2018-03-03T17:29:33.100Z,0.90
2018-03-03T17:32:01.344Z,0.90
2018-03-03T17:34:29.623Z,0.90
2018-03-03T17:36:57.889Z,0.90
2018-03-03T17:39:26.174Z,0.80
2018-03-03T17:41:54.516Z,0.80
2018-03-03T17:44:23.563Z,0.70
2018-03-03T17:46:51.869Z,0.60
2018-03-03T17:49:20.936Z,0.60
2018-03-03T17:51:49.215Z,0.60
2018-03-03T17:54:17.519Z,0.60
2018-03-03T17:56:45.848Z,0.50
2018-03-03T17:59:14.209Z,0.50
2018-03-03T18:01:42.598Z,0.50
2018-03-03T18:04:10.859Z,0.40
2018-03-03T18:06:39.159Z,0.40
2018-03-03T18:09:07.428Z,0.40
2018-03-03T18:11:35.747Z,0.30
2018-03-03T18:14:04.780Z,0.30
2018-03-03T18:16:33.080Z,0.30
2018-03-03T18:19:01.351Z,0.30
2018-03-03T18:21:30.167Z,0.30
2018-03-03T18:23:59.189Z,0.20
2018-03-03T18:26:27.533Z,0.10
2018-03-03T18:28:56.591Z,0.20
2018-03-03T18:31:24.972Z,0.10
2018-03-03T18:33:53.278Z,0.20
2018-03-03T18:36:21.565Z,0.10
2018-03-03T18:38:50.600Z,0.10
2018-03-03T18:41:18.947Z,0.10
2018-03-03T18:43:47.963Z,0.10
2018-03-03T18:46:16.321Z,0.00
2018-03-03T18:48:44.606Z,0.00
2018-03-03T18:51:12.930Z,0.00
2018-03-03T18:53:41.195Z,0.00
2018-03-03T18:56:09.506Z,0.10
2018-03-03T18:58:38.597Z,0.50
2018-03-03T19:01:07.643Z,0.60
2018-03-03T19:03:36.821Z,0.70
2018-03-03T19:06:05.151Z,0.70
2018-03-03T19:08:33.456Z,0.80
2018-03-03T19:11:01.766Z,0.90
2018-03-03T19:13:30.237Z,1.00
2018-03-03T19:15:58.480Z,1.00
2018-03-03T19:18:27.549Z,1.00
2018-03-03T19:20:55.814Z,1.00
2018-03-03T19:23:24.083Z,1.10
2018-03-03T19:25:52.485Z,1.10
2018-03-03T19:28:21.576Z,1.20
2018-03-03T19:30:49.855Z,1.10
2018-03-03T19:33:18.938Z,1.10
2018-03-03T19:35:47.200Z,1.00
2018-03-03T19:38:15.499Z,1.10
2018-03-03T19:40:43.767Z,1.10
2018-03-03T19:43:12.847Z,1.00
2018-03-03T19:45:42.021Z,1.00
2018-03-03T19:48:10.306Z,1.00
2018-03-03T19:50:38.617Z,1.00
2018-03-03T19:53:07.702Z,1.00
2018-03-03T19:55:36.981Z,1.00
2018-03-03T19:58:05.268Z,0.90
2018-03-03T20:00:34.329Z,1.00
2018-03-03T20:03:02.756Z,0.90
2018-03-03T20:05:31.796Z,0.90
2018-03-03T20:08:00.074Z,0.90
2018-03-03T20:10:29.930Z,0.90
2018-03-03T20:12:58.208Z,0.80
2018-03-03T20:15:27.284Z,0.80
2018-03-03T20:17:55.549Z,0.80
2018-03-03T20:20:23.825Z,0.90
2018-03-03T20:22:52.134Z,0.80
2018-03-03T20:25:21.177Z,0.80
2018-03-03T20:27:49.470Z,0.80
2018-03-03T20:30:17.798Z,0.90
2018-03-03T20:32:46.813Z,0.90
2018-03-03T20:35:15.235Z,0.80
2018-03-03T20:37:43.503Z,0.80
2018-03-03T20:40:11.890Z,0.80
2018-03-03T20:42:40.171Z,0.80
2018-03-03T20:45:09.181Z,0.90
2018-03-03T20:47:37.466Z,0.80
2018-03-03T20:50:05.879Z,0.80
2018-03-03T20:52:34.174Z,0.80
2018-03-03T20:55:02.449Z,0.80
2018-03-03T20:57:30.748Z,0.80
2018-03-03T20:59:59.840Z,0.90
2018-03-03T21:02:28.887Z,0.90
2018-03-03T21:04:57.321Z,0.90
2018-03-03T21:07:25.584Z,0.90
2018-03-03T21:09:54.721Z,0.90
2018-03-03T21:12:22.917Z,0.90
2018-03-03T21:14:51.251Z,0.90
2018-03-03T21:17:19.552Z,0.90
2018-03-03T21:19:47.842Z,1.00
2018-03-03T21:22:16.147Z,0.90
2018-03-03T21:24:44.421Z,1.00
2018-03-03T21:27:12.703Z,1.00
2018-03-03T21:29:41.764Z,1.10
2018-03-03T21:32:10.049Z,1.00
2018-03-03T21:34:38.506Z,1.10
2018-03-03T21:37:06.850Z,1.00
2018-03-03T21:39:35.139Z,1.00
2018-03-03T21:42:03.377Z,1.00
2018-03-03T21:44:32.430Z,1.00
2018-03-03T21:47:00.706Z,1.00
2018-03-03T21:49:29.016Z,1.00
2018-03-03T21:51:57.489Z,1.00
2018-03-03T21:54:25.799Z,1.10
2018-03-03T21:56:54.082Z,1.10
2018-03-03T21:59:22.369Z,1.10
2018-03-03T22:01:50.937Z,1.10
2018-03-03T22:04:19.942Z,1.00
2018-03-03T22:06:48.252Z,1.00
2018-03-03T22:09:17.354Z,1.10
2018-03-03T22:11:45.619Z,1.10
2018-03-03T22:14:14.676Z,1.10
2018-03-03T22:16:43.112Z,1.10
2018-03-03T22:19:11.392Z,1.10
2018-03-03T22:21:40.481Z,1.20
2018-03-03T22:24:09.657Z,1.20
2018-03-03T22:26:37.927Z,1.20
2018-03-03T22:29:06.198Z,1.20
2018-03-03T22:31:34.488Z,1.30
2018-03-03T22:34:02.829Z,1.30
2018-03-03T22:36:31.118Z,1.30
2018-03-03T22:38:59.392Z,1.40
2018-03-03T22:41:27.698Z,1.40
2018-03-03T22:43:55.992Z,1.40
2018-03-03T22:46:25.024Z,1.40
2018-03-03T22:48:53.320Z,1.40
2018-03-03T22:51:21.684Z,1.50
2018-03-03T22:53:50.022Z,1.50
2018-03-03T22:56:19.151Z,1.60
2018-03-03T22:58:47.511Z,1.50
2018-03-03T23:01:15.857Z,1.60
2018-03-03T23:03:44.126Z,1.60
2018-03-03T23:06:13.258Z,1.60
2018-03-03T23:08:42.576Z,1.70
2018-03-03T23:11:10.837Z,1.60
2018-03-03T23:13:39.132Z,1.70
2018-03-03T23:16:07.439Z,1.70
2018-03-03T23:18:35.703Z,1.70
2018-03-03T23:21:06.395Z,1.70
2018-03-03T23:23:34.676Z,1.70
2018-03-03T23:26:03.159Z,1.80
2018-03-03T23:28:31.576Z,1.80
2018-03-03T23:30:59.891Z,1.90
2018-03-03T23:33:28.903Z,1.90
2018-03-03T23:35:57.203Z,1.90
2018-03-03T23:38:25.472Z,1.90
2018-03-03T23:40:53.895Z,1.90
2018-03-03T23:43:22.230Z,1.90
2018-03-03T23:45:50.598Z,2.00
2018-03-03T23:48:18.857Z,1.90
2018-03-03T23:50:47.116Z,2.00
2018-03-03T23:53:15.387Z,1.90
2018-03-03T23:55:43.771Z,2.00
2018-03-03T23:58:12.094Z,2.00
